TimeEDT,TemperatureF,Dew PointF,Humidity,Sea Level PressureIn,VisibilityMPH,Wind Direction,Wind SpeedMPH,Gust SpeedMPH,PrecipitationIn,Events,Conditions,WindDirDegrees,DateUTC
12:54 AM,32.0,32.0,100,-9999,0.0,West,27.6,35.7,N/A,Fog,Fog,280,2012-10-21 04:54:00
1:53 AM,32.0,32.0,100,-9999,0.0,WNW,34.5,-,N/A,Fog,Light Freezing Fog,300,2012-10-21 05:53:00
2:47 AM,30.2,30.2,100,-9999,0.0,WNW,35.7,-,N/A,Fog,Light Freezing Fog,300,2012-10-21 06:47:00
3:52 AM,28.4,28.4,100,-9999,0.0,WNW,39.1,-,N/A,Fog,Light Freezing Fog,300,2012-10-21 07:52:00
4:58 AM,28.4,28.4,100,-9999,0.0,West,36.8,-,N/A,Fog,Light Freezing Fog,280,2012-10-21 08:58:00
5:48 AM,26.6,26.6,100,-9999,0.0,West,39.1,-,N/A,Fog,Light Freezing Fog,280,2012-10-21 09:48:00
6:52 AM,26.6,26.6,100,-9999,0.0,West,43.7,-,N/A,Fog,Light Freezing Fog,280,2012-10-21 10:52:00
7:51 AM,26.6,26.6,100,-9999,0.0,West,44.9,-,N/A,Fog,Light Freezing Fog,280,2012-10-21 11:51:00
8:53 AM,26.6,26.6,100,-9999,0.0,West,51.8,-,N/A,Fog,Light Freezing Fog,280,2012-10-21 12:53:00
9:55 AM,26.6,26.6,100,-9999,0.0,West,51.8,-,N/A,Fog,Light Freezing Fog,280,2012-10-21 13:55:00
10:56 AM,28.4,28.4,100,-9999,0.0,West,57.5,-,N/A,Fog,Light Freezing Fog,280,2012-10-21 14:56:00
11:54 AM,28.4,28.4,100,-9999,0.0,West,56.4,66.7,N/A,Fog,Light Freezing Fog,280,2012-10-21 15:54:00
12:56 PM,28.4,28.4,100,-9999,0.0,West,69.0,74.8,N/A,Fog,Light Freezing Fog,280,2012-10-21 16:56:00
1:52 PM,28.4,28.4,100,-9999,0.0,West,66.7,72.5,N/A,Fog,Light Freezing Fog,280,2012-10-21 17:52:00
2:53 PM,28.4,28.4,100,-9999,0.0,West,65.6,71.3,N/A,Fog,Light Freezing Fog,280,2012-10-21 18:53:00
3:51 PM,28.4,28.4,100,-9999,0.0,West,69.0,78.3,N/A,Fog,Light Freezing Fog,280,2012-10-21 19:51:00
4:53 PM,28.4,28.4,100,-9999,0.0,West,69.0,78.3,N/A,Fog,Light Freezing Fog,280,2012-10-21 20:53:00
5:50 PM,28.4,28.4,100,-9999,0.0,West,66.7,76.0,N/A,Fog,Light Freezing Fog,280,2012-10-21 21:50:00
6:52 PM,28.4,28.4,100,-9999,0.0,West,70.2,81.7,N/A,Fog,Light Freezing Fog,280,2012-10-21 22:52:00
7:53 PM,28.4,28.4,100,-9999,0.0,West,65.6,86.3,N/A,Fog,Light Freezing Fog,280,2012-10-21 23:53:00
8:52 PM,28.4,28.4,100,-9999,0.0,WNW,89.8,96.7,N/A,Fog,Light Freezing Fog,290,2012-10-22 00:52:00
9:51 PM,28.4,28.4,100,-9999,0.0,WNW,82.9,94.4,N/A,Fog,Light Freezing Fog,290,2012-10-22 01:51:00
10:55 PM,28.4,28.4,100,-9999,0.0,WNW,80.6,92.1,N/A,Fog,Light Freezing Fog,290,2012-10-22 02:55:00
11:50 PM,28.4,28.4,100,-9999,0.0,WNW,79.4,89.8,N/A,Fog,Light Freezing Fog,290,2012-10-22 03:50:00